Home   Weather   USA   Mountain View   Past weeks
Flag for USA

Past Weather in Mountain View, California, USA — Yesterday and Last 2 Weeks

Currently: 63 °F. Sunny. (Weather station: Moffett Field, USA). See more current weather

Past Weather in Mountain View — Graph

°F

Mountain View Temperature Yesterday

Maximum temperature yesterday: 77 °F (at 4:55 pm)
Minimum temperature yesterday: 54 °F (at 5:55 am)
Average temperature yesterday: 65 °F

High & Low Weather Summary for the Past Weeks

 TemperatureHumidityPressure
High84 °F (Jun 5, 1:35 pm)94% (Jun 3, 7:15 am)30.06 "Hg (Jun 3, 7:15 am)
Low52 °F (Jun 14, 4:55 am)33% (Jun 15, 6:15 pm)29.79 "Hg (Jun 5, 6:15 pm)
Average65 °F68%29.92 "Hg
* Reported Jun 1 8:10 am — Jun 16 8:35 am, Mountain View. Weather by CustomWeather, © 2024

Note: Actual official high and low records may vary slightly from our data, if they occured in-between our weather recording intervals... More about our weather records

Mountain View Weather History for the Previous 24 Hours

Scroll right to see more
 ConditionsComfort  
Time TempWeatherWind HumidityBarometerVisibility
8:35 am
Sun, Jun 16
63 °FSunny.5 mph68%29.92 "Hg6 mi
7:55 am61 °FSunny.No wind72%29.91 "Hg6 mi
7:35 am59 °FSunny.No wind77%29.91 "Hg6 mi
6:55 am57 °FSunny.No wind77%29.91 "Hg5 mi
6:35 am55 °FSunny.No wind82%29.91 "Hg5 mi
6:15 am55 °FSunny.No wind82%29.91 "Hg5 mi
5:55 am55 °FSunny.3 mph82%29.91 "Hg5 mi
5:35 am55 °FClear.No wind82%29.90 "Hg6 mi
5:15 am55 °FClear.No wind82%29.90 "Hg6 mi
4:55 am55 °FClear.No wind82%29.90 "Hg6 mi
4:15 am55 °FClear.No wind82%29.90 "Hg6 mi
3:55 am55 °FClear.3 mph82%29.90 "Hg6 mi
3:35 am55 °FClear.No wind82%29.90 "Hg6 mi
2:55 am55 °FClear.5 mph82%29.91 "Hg6 mi
2:30 am55 °FClear.5 mph82%29.91 "Hg6 mi
2:15 am57 °FClear.3 mph77%29.91 "Hg6 mi
1:55 am57 °FClear.6 mph77%29.92 "Hg6 mi
1:35 am57 °FClear.5 mph77%29.92 "Hg6 mi
12:55 am57 °FClear.5 mph77%29.92 "Hg6 mi
12:15 am57 °FClear.No wind77%29.93 "Hg6 mi
11:35 pm
Sat, Jun 15
59 °FClear.6 mph68%29.94 "Hg8 mi
10:35 pm61 °FClear.9 mph59%29.94 "Hg9 mi
10:15 pm61 °FClear.10 mph59%29.94 "Hg9 mi
9:55 pm63 °FClear.12 mph56%29.94 "Hg9 mi
9:35 pm63 °FClear.10 mph56%29.93 "Hg10 mi
8:50 pm64 °FClear.9 mph52%29.93 "Hg10 mi
8:35 pm64 °FClear.10 mph52%29.92 "Hg9 mi
8:15 pm64 °FSunny.13 mph52%29.92 "Hg9 mi
7:55 pm66 °FSunny.13 mph49%29.92 "Hg9 mi
7:15 pm68 °FSunny.14 mph46%29.92 "Hg9 mi
6:55 pm70 °FSunny.17 mph40%29.92 "Hg9 mi
6:15 pm73 °FSunny.12 mph33%29.91 "Hg9 mi
5:55 pm73 °FSunny.13 mph36%29.91 "Hg9 mi
5:35 pm75 °FSunny.20 mph39%29.91 "Hg9 mi
4:55 pm77 °FSunny.18 mph42%29.91 "Hg9 mi
4:15 pm75 °FSunny.14 mph44%29.92 "Hg9 mi
3:55 pm73 °FSunny.14 mph41%29.93 "Hg9 mi
3:35 pm73 °FSunny.13 mph44%29.93 "Hg9 mi
3:10 pm73 °FSunny.13 mph41%29.94 "Hg9 mi
2:55 pm73 °FSunny.13 mph41%29.95 "Hg9 mi
2:35 pm73 °FSunny.14 mph38%29.96 "Hg9 mi
2:15 pm73 °FSunny.15 mph38%29.97 "Hg9 mi
1:55 pm73 °FSunny.14 mph38%29.97 "Hg10 mi
1:35 pm72 °FSunny.15 mph36%29.98 "Hg10 mi
1:10 pm72 °FSunny.15 mph41%29.99 "Hg9 mi
12:35 pm70 °FSunny.12 mph43%30.00 "Hg9 mi
12:15 pm68 °FSunny.10 mph46%30.01 "Hg9 mi
11:55 am68 °FSunny.8 mph46%30.01 "Hg9 mi
11:35 am68 °FSunny.7 mph46%30.01 "Hg9 mi
10:55 am64 °FSunny.7 mph60%30.03 "Hg8 mi
10:35 am64 °FSunny.7 mph56%30.03 "Hg8 mi
10:15 am64 °FSunny.8 mph56%30.03 "Hg9 mi
9:55 am63 °FSunny.8 mph59%30.03 "Hg8 mi
9:30 am63 °FSunny.7 mph56%30.04 "Hg9 mi
9:15 am63 °FSunny.8 mph56%30.04 "Hg10 mi
Weather by CustomWeather, © 2024

See weather overview